sensor_id;sensor_type;location;lat;lon;timestamp;P1;durP1;ratioP1;P2;durP2;ratioP2
16393;SDS011;8306;51.128;4.476;2022-11-15T00:00:25;19.10;;;17.40;;
16393;SDS011;8306;51.128;4.476;2022-11-15T00:02:52;19.60;;;18.07;;
16393;SDS011;8306;51.128;4.476;2022-11-15T00:05:18;24.07;;;21.60;;
16393;SDS011;8306;51.128;4.476;2022-11-15T00:07:44;27.40;;;24.60;;
16393;SDS011;8306;51.128;4.476;2022-11-15T00:10:14;46.30;;;35.27;;
16393;SDS011;8306;51.128;4.476;2022-11-15T00:12:37;37.37;;;32.60;;
16393;SDS011;8306;51.128;4.476;2022-11-15T00:15:04;29.63;;;26.60;;
16393;SDS011;8306;51.128;4.476;2022-11-15T00:17:30;23.03;;;21.03;;
16393;SDS011;8306;51.128;4.476;2022-11-15T00:19:57;19.30;;;17.70;;
16393;SDS011;8306;51.128;4.476;2022-11-15T00:22:23;20.83;;;18.87;;
16393;SDS011;8306;51.128;4.476;2022-11-15T00:24:50;23.33;;;21.33;;
16393;SDS011;8306;51.128;4.476;2022-11-15T00:27:16;27.50;;;24.83;;
16393;SDS011;8306;51.128;4.476;2022-11-15T00:29:43;21.90;;;19.80;;
16393;SDS011;8306;51.128;4.476;2022-11-15T00:32:10;19.37;;;17.77;;
16393;SDS011;8306;51.128;4.476;2022-11-15T00:34:36;20.20;;;18.27;;
16393;SDS011;8306;51.128;4.476;2022-11-15T00:37:02;18.77;;;17.23;;
16393;SDS011;8306;51.128;4.476;2022-11-15T00:39:29;18.53;;;16.83;;
16393;SDS011;8306;51.128;4.476;2022-11-15T00:41:55;24.40;;;22.40;;
16393;SDS011;8306;51.128;4.476;2022-11-15T00:44:22;22.57;;;20.77;;
16393;SDS011;8306;51.128;4.476;2022-11-15T00:46:48;18.07;;;16.63;;
16393;SDS011;8306;51.128;4.476;2022-11-15T00:49:15;17.40;;;15.90;;
16393;SDS011;8306;51.128;4.476;2022-11-15T00:51:41;19.37;;;17.77;;
16393;SDS011;8306;51.128;4.476;2022-11-15T00:54:08;19.50;;;17.80;;
16393;SDS011;8306;51.128;4.476;2022-11-15T00:56:34;16.97;;;15.67;;
16393;SDS011;8306;51.128;4.476;2022-11-15T00:59:01;18.77;;;16.83;;
16393;SDS011;8306;51.128;4.476;2022-11-15T01:01:27;19.63;;;17.97;;
16393;SDS011;8306;51.128;4.476;2022-11-15T01:03:54;17.73;;;16.43;;
16393;SDS011;8306;51.128;4.476;2022-11-15T01:06:20;16.97;;;15.60;;
16393;SDS011;8306;51.128;4.476;2022-11-15T01:08:47;15.27;;;14.17;;
16393;SDS011;8306;51.128;4.476;2022-11-15T01:11:13;16.53;;;15.13;;
16393;SDS011;8306;51.128;4.476;2022-11-15T01:13:40;15.93;;;14.40;;
16393;SDS011;8306;51.128;4.476;2022-11-15T01:16:07;16.07;;;14.80;;
16393;SDS011;8306;51.128;4.476;2022-11-15T01:18:33;17.30;;;15.80;;
16393;SDS011;8306;51.128;4.476;2022-11-15T01:20:59;16.40;;;15.03;;
16393;SDS011;8306;51.128;4.476;2022-11-15T01:23:26;14.77;;;13.63;;
16393;SDS011;8306;51.128;4.476;2022-11-15T01:25:52;16.37;;;14.87;;
16393;SDS011;8306;51.128;4.476;2022-11-15T01:28:18;16.73;;;15.20;;
16393;SDS011;8306;51.128;4.476;2022-11-15T01:30:47;14.50;;;13.17;;
16393;SDS011;8306;51.128;4.476;2022-11-15T01:33:14;15.77;;;14.27;;
16393;SDS011;8306;51.128;4.476;2022-11-15T01:35:40;14.73;;;13.63;;
16393;SDS011;8306;51.128;4.476;2022-11-15T01:38:07;13.67;;;12.63;;
16393;SDS011;8306;51.128;4.476;2022-11-15T01:40:33;15.10;;;13.80;;
16393;SDS011;8306;51.128;4.476;2022-11-15T01:43:18;13.83;;;12.73;;
16393;SDS011;8306;51.128;4.476;2022-11-15T01:45:26;14.60;;;13.50;;
16393;SDS011;8306;51.128;4.476;2022-11-15T01:47:53;15.03;;;13.83;;
16393;SDS011;8306;51.128;4.476;2022-11-15T01:50:21;15.63;;;14.43;;
16393;SDS011;8306;51.128;4.476;2022-11-15T01:52:46;14.10;;;13.07;;
16393;SDS011;8306;51.128;4.476;2022-11-15T01:55:17;14.03;;;12.93;;
16393;SDS011;8306;51.128;4.476;2022-11-15T01:57:42;16.97;;;15.13;;
16393;SDS011;8306;51.128;4.476;2022-11-15T02:00:08;14.93;;;13.70;;
16393;SDS011;8306;51.128;4.476;2022-11-15T02:02:35;14.13;;;13.03;;
16393;SDS011;8306;51.128;4.476;2022-11-15T02:05:02;14.37;;;13.03;;
16393;SDS011;8306;51.128;4.476;2022-11-15T02:07:28;15.10;;;13.80;;
16393;SDS011;8306;51.128;4.476;2022-11-15T02:09:54;14.47;;;13.27;;
16393;SDS011;8306;51.128;4.476;2022-11-15T02:12:21;14.70;;;13.50;;
16393;SDS011;8306;51.128;4.476;2022-11-15T02:14:48;16.07;;;14.77;;
16393;SDS011;8306;51.128;4.476;2022-11-15T02:20:05;13.87;;;12.70;;
16393;SDS011;8306;51.128;4.476;2022-11-15T02:22:42;15.30;;;13.87;;
16393;SDS011;8306;51.128;4.476;2022-11-15T02:27:50;13.77;;;12.73;;
16393;SDS011;8306;51.128;4.476;2022-11-15T02:30:29;13.63;;;12.63;;
16393;SDS011;8306;51.128;4.476;2022-11-15T02:35:46;13.53;;;12.53;;
16393;SDS011;8306;51.128;4.476;2022-11-15T02:40:49;13.67;;;12.30;;
16393;SDS011;8306;51.128;4.476;2022-11-15T02:43:13;14.00;;;12.80;;
16393;SDS011;8306;51.128;4.476;2022-11-15T02:46:17;14.77;;;13.37;;
16393;SDS011;8306;51.128;4.476;2022-11-15T02:48:44;13.67;;;12.37;;
16393;SDS011;8306;51.128;4.476;2022-11-15T02:51:10;14.93;;;13.73;;
16393;SDS011;8306;51.128;4.476;2022-11-15T02:53:37;13.37;;;12.30;;
16393;SDS011;8306;51.128;4.476;2022-11-15T02:56:03;13.83;;;12.63;;
16393;SDS011;8306;51.128;4.476;2022-11-15T02:58:47;12.73;;;11.70;;
16393;SDS011;8306;51.128;4.476;2022-11-15T03:01:30;12.93;;;11.73;;
16393;SDS011;8306;51.128;4.476;2022-11-15T03:09:24;12.47;;;11.17;;
16393;SDS011;8306;51.128;4.476;2022-11-15T03:11:59;11.83;;;10.87;;
16393;SDS011;8306;51.128;4.476;2022-11-15T03:15:01;13.63;;;12.47;;
16393;SDS011;8306;51.128;4.476;2022-11-15T03:17:01;12.07;;;11.17;;
16393;SDS011;8306;51.128;4.476;2022-11-15T03:22:16;12.80;;;11.80;;
16393;SDS011;8306;51.128;4.476;2022-11-15T03:24:39;11.53;;;10.60;;
16393;SDS011;8306;51.128;4.476;2022-11-15T03:27:06;11.77;;;10.70;;
16393;SDS011;8306;51.128;4.476;2022-11-15T03:29:46;11.30;;;10.10;;
16393;SDS011;8306;51.128;4.476;2022-11-15T03:32:18;10.93;;;10.03;;
16393;SDS011;8306;51.128;4.476;2022-11-15T03:35:05;11.10;;;10.10;;
16393;SDS011;8306;51.128;4.476;2022-11-15T03:37:33;10.03;;;9.33;;
16393;SDS011;8306;51.128;4.476;2022-11-15T03:40:15;10.03;;;9.20;;
16393;SDS011;8306;51.128;4.476;2022-11-15T03:47:49;9.10;;;8.37;;
16393;SDS011;8306;51.128;4.476;2022-11-15T03:50:16;8.67;;;7.97;;
16393;SDS011;8306;51.128;4.476;2022-11-15T03:52:41;9.10;;;8.23;;
16393;SDS011;8306;51.128;4.476;2022-11-15T03:55:09;8.23;;;7.50;;
16393;SDS011;8306;51.128;4.476;2022-11-15T03:57:34;8.53;;;7.83;;
16393;SDS011;8306;51.128;4.476;2022-11-15T04:00:01;8.20;;;7.53;;
16393;SDS011;8306;51.128;4.476;2022-11-15T04:02:27;7.60;;;7.00;;
16393;SDS011;8306;51.128;4.476;2022-11-15T04:04:54;7.83;;;7.13;;
16393;SDS011;8306;51.128;4.476;2022-11-15T04:07:20;7.47;;;6.87;;
16393;SDS011;8306;51.128;4.476;2022-11-15T04:09:47;7.27;;;6.57;;
16393;SDS011;8306;51.128;4.476;2022-11-15T04:12:29;7.00;;;6.37;;
16393;SDS011;8306;51.128;4.476;2022-11-15T04:14:58;7.20;;;6.50;;
16393;SDS011;8306;51.128;4.476;2022-11-15T04:17:34;7.00;;;6.40;;
16393;SDS011;8306;51.128;4.476;2022-11-15T04:19:59;6.90;;;6.30;;
16393;SDS011;8306;51.128;4.476;2022-11-15T04:22:44;6.37;;;5.73;;
16393;SDS011;8306;51.128;4.476;2022-11-15T04:25:28;6.60;;;6.10;;
16393;SDS011;8306;51.128;4.476;2022-11-15T04:27:55;6.80;;;6.20;;
16393;SDS011;8306;51.128;4.476;2022-11-15T04:30:21;7.03;;;6.33;;
16393;SDS011;8306;51.128;4.476;2022-11-15T04:32:48;6.67;;;6.07;;
16393;SDS011;8306;51.128;4.476;2022-11-15T04:35:14;6.93;;;6.33;;
16393;SDS011;8306;51.128;4.476;2022-11-15T04:37:41;6.77;;;6.10;;
16393;SDS011;8306;51.128;4.476;2022-11-15T04:40:07;7.73;;;7.03;;
16393;SDS011;8306;51.128;4.476;2022-11-15T04:42:34;6.77;;;6.10;;
16393;SDS011;8306;51.128;4.476;2022-11-15T04:45:00;6.57;;;6.00;;
16393;SDS011;8306;51.128;4.476;2022-11-15T04:47:27;7.23;;;5.87;;
16393;SDS011;8306;51.128;4.476;2022-11-15T04:49:53;6.87;;;6.27;;
16393;SDS011;8306;51.128;4.476;2022-11-15T04:52:20;6.37;;;5.77;;
16393;SDS011;8306;51.128;4.476;2022-11-15T04:54:46;6.87;;;6.27;;
16393;SDS011;8306;51.128;4.476;2022-11-15T04:57:15;5.97;;;5.47;;
16393;SDS011;8306;51.128;4.476;2022-11-15T04:59:39;5.87;;;5.27;;
16393;SDS011;8306;51.128;4.476;2022-11-15T05:02:06;6.07;;;5.57;;
16393;SDS011;8306;51.128;4.476;2022-11-15T05:04:32;7.60;;;5.43;;
16393;SDS011;8306;51.128;4.476;2022-11-15T05:06:59;5.50;;;5.00;;
16393;SDS011;8306;51.128;4.476;2022-11-15T05:09:25;5.97;;;5.10;;
16393;SDS011;8306;51.128;4.476;2022-11-15T05:11:52;5.70;;;5.20;;
16393;SDS011;8306;51.128;4.476;2022-11-15T05:14:18;5.90;;;4.87;;
16393;SDS011;8306;51.128;4.476;2022-11-15T05:16:45;6.80;;;6.00;;
16393;SDS011;8306;51.128;4.476;2022-11-15T05:19:11;6.53;;;5.33;;
16393;SDS011;8306;51.128;4.476;2022-11-15T05:21:38;5.27;;;4.87;;
16393;SDS011;8306;51.128;4.476;2022-11-15T05:24:04;6.17;;;4.70;;
16393;SDS011;8306;51.128;4.476;2022-11-15T05:26:31;5.90;;;5.30;;
16393;SDS011;8306;51.128;4.476;2022-11-15T05:28:58;5.50;;;5.00;;
16393;SDS011;8306;51.128;4.476;2022-11-15T05:31:24;5.53;;;5.03;;
16393;SDS011;8306;51.128;4.476;2022-11-15T05:33:50;5.93;;;4.93;;
16393;SDS011;8306;51.128;4.476;2022-11-15T05:38:46;5.87;;;5.03;;
16393;SDS011;8306;51.128;4.476;2022-11-15T05:41:12;5.63;;;5.17;;
16393;SDS011;8306;51.128;4.476;2022-11-15T05:43:39;5.53;;;5.03;;
16393;SDS011;8306;51.128;4.476;2022-11-15T05:46:05;5.83;;;5.30;;
16393;SDS011;8306;51.128;4.476;2022-11-15T05:48:33;6.13;;;5.60;;
16393;SDS011;8306;51.128;4.476;2022-11-15T05:50:58;5.67;;;5.17;;
16393;SDS011;8306;51.128;4.476;2022-11-15T05:53:25;5.40;;;4.90;;
16393;SDS011;8306;51.128;4.476;2022-11-15T05:55:51;7.67;;;6.07;;
16393;SDS011;8306;51.128;4.476;2022-11-15T05:58:18;6.80;;;5.53;;
16393;SDS011;8306;51.128;4.476;2022-11-15T06:00:44;5.30;;;4.80;;
16393;SDS011;8306;51.128;4.476;2022-11-15T06:03:11;5.20;;;4.73;;
16393;SDS011;8306;51.128;4.476;2022-11-15T06:05:37;6.50;;;4.60;;
16393;SDS011;8306;51.128;4.476;2022-11-15T06:08:04;5.03;;;3.77;;
16393;SDS011;8306;51.128;4.476;2022-11-15T06:10:30;4.30;;;3.90;;
16393;SDS011;8306;51.128;4.476;2022-11-15T06:12:57;5.27;;;4.27;;
16393;SDS011;8306;51.128;4.476;2022-11-15T06:15:23;4.77;;;3.93;;
16393;SDS011;8306;51.128;4.476;2022-11-15T06:17:49;6.77;;;5.40;;
16393;SDS011;8306;51.128;4.476;2022-11-15T06:20:16;6.20;;;5.53;;
16393;SDS011;8306;51.128;4.476;2022-11-15T06:22:43;6.90;;;6.30;;
16393;SDS011;8306;51.128;4.476;2022-11-15T06:25:09;4.80;;;4.30;;
16393;SDS011;8306;51.128;4.476;2022-11-15T06:27:35;5.30;;;4.80;;
16393;SDS011;8306;51.128;4.476;2022-11-15T06:30:02;6.27;;;5.00;;
16393;SDS011;8306;51.128;4.476;2022-11-15T06:32:29;4.97;;;4.47;;
16393;SDS011;8306;51.128;4.476;2022-11-15T06:34:55;4.97;;;4.00;;
16393;SDS011;8306;51.128;4.476;2022-11-15T06:37:21;8.50;;;4.23;;
16393;SDS011;8306;51.128;4.476;2022-11-15T06:39:48;6.63;;;4.17;;
16393;SDS011;8306;51.128;4.476;2022-11-15T06:42:14;5.90;;;3.60;;
16393;SDS011;8306;51.128;4.476;2022-11-15T06:44:41;5.07;;;3.97;;
16393;SDS011;8306;51.128;4.476;2022-11-15T06:47:07;6.03;;;3.97;;
16393;SDS011;8306;51.128;4.476;2022-11-15T06:49:34;4.50;;;4.10;;
16393;SDS011;8306;51.128;4.476;2022-11-15T06:52:00;6.67;;;5.50;;
16393;SDS011;8306;51.128;4.476;2022-11-15T06:54:27;6.40;;;4.13;;
16393;SDS011;8306;51.128;4.476;2022-11-15T06:56:53;6.00;;;5.40;;
16393;SDS011;8306;51.128;4.476;2022-11-15T06:59:20;6.07;;;5.33;;
16393;SDS011;8306;51.128;4.476;2022-11-15T07:01:46;7.07;;;4.73;;
16393;SDS011;8306;51.128;4.476;2022-11-15T07:04:13;5.27;;;4.70;;
16393;SDS011;8306;51.128;4.476;2022-11-15T07:06:39;5.17;;;4.47;;
16393;SDS011;8306;51.128;4.476;2022-11-15T07:09:06;6.43;;;4.43;;
16393;SDS011;8306;51.128;4.476;2022-11-15T07:11:32;5.83;;;5.43;;
16393;SDS011;8306;51.128;4.476;2022-11-15T07:13:59;7.10;;;6.03;;
16393;SDS011;8306;51.128;4.476;2022-11-15T07:16:25;7.03;;;6.30;;
16393;SDS011;8306;51.128;4.476;2022-11-15T07:18:51;7.47;;;6.70;;
16393;SDS011;8306;51.128;4.476;2022-11-15T07:21:18;7.83;;;4.90;;
16393;SDS011;8306;51.128;4.476;2022-11-15T07:23:44;6.77;;;4.23;;
16393;SDS011;8306;51.128;4.476;2022-11-15T07:26:11;7.13;;;5.83;;
16393;SDS011;8306;51.128;4.476;2022-11-15T07:28:37;9.90;;;5.13;;
16393;SDS011;8306;51.128;4.476;2022-11-15T07:31:04;5.03;;;4.53;;
16393;SDS011;8306;51.128;4.476;2022-11-15T07:33:30;5.40;;;4.40;;
16393;SDS011;8306;51.128;4.476;2022-11-15T07:36:00;5.43;;;4.10;;
16393;SDS011;8306;51.128;4.476;2022-11-15T07:38:26;6.23;;;3.53;;
16393;SDS011;8306;51.128;4.476;2022-11-15T07:40:59;4.33;;;3.93;;
16393;SDS011;8306;51.128;4.476;2022-11-15T07:43:25;4.27;;;3.87;;
16393;SDS011;8306;51.128;4.476;2022-11-15T07:45:51;4.10;;;3.70;;
16393;SDS011;8306;51.128;4.476;2022-11-15T07:48:18;6.10;;;4.13;;
16393;SDS011;8306;51.128;4.476;2022-11-15T07:50:44;3.60;;;3.30;;
16393;SDS011;8306;51.128;4.476;2022-11-15T07:53:11;5.47;;;3.80;;
16393;SDS011;8306;51.128;4.476;2022-11-15T07:55:39;4.27;;;3.63;;
16393;SDS011;8306;51.128;4.476;2022-11-15T07:58:04;4.80;;;4.40;;
16393;SDS011;8306;51.128;4.476;2022-11-15T08:00:30;5.17;;;4.20;;
16393;SDS011;8306;51.128;4.476;2022-11-15T08:05:29;4.47;;;4.07;;
16393;SDS011;8306;51.128;4.476;2022-11-15T08:07:56;4.43;;;3.40;;
16393;SDS011;8306;51.128;4.476;2022-11-15T08:10:22;4.93;;;3.30;;
16393;SDS011;8306;51.128;4.476;2022-11-15T08:12:56;4.43;;;3.77;;
16393;SDS011;8306;51.128;4.476;2022-11-15T08:15:15;3.70;;;3.40;;
16393;SDS011;8306;51.128;4.476;2022-11-15T08:17:42;3.63;;;3.00;;
16393;SDS011;8306;51.128;4.476;2022-11-15T08:20:08;5.50;;;3.20;;
16393;SDS011;8306;51.128;4.476;2022-11-15T08:22:35;5.37;;;3.30;;
16393;SDS011;8306;51.128;4.476;2022-11-15T08:25:01;7.20;;;3.50;;
16393;SDS011;8306;51.128;4.476;2022-11-15T08:27:28;4.00;;;2.63;;
16393;SDS011;8306;51.128;4.476;2022-11-15T08:29:54;3.40;;;2.70;;
16393;SDS011;8306;51.128;4.476;2022-11-15T08:32:21;3.63;;;3.33;;
16393;SDS011;8306;51.128;4.476;2022-11-15T08:34:47;6.93;;;3.10;;
16393;SDS011;8306;51.128;4.476;2022-11-15T08:37:14;3.80;;;3.40;;
16393;SDS011;8306;51.128;4.476;2022-11-15T08:39:40;13.13;;;11.83;;
16393;SDS011;8306;51.128;4.476;2022-11-15T08:42:07;7.90;;;7.20;;
16393;SDS011;8306;51.128;4.476;2022-11-15T08:44:33;9.60;;;8.60;;
16393;SDS011;8306;51.128;4.476;2022-11-15T08:47:00;3.83;;;3.53;;
16393;SDS011;8306;51.128;4.476;2022-11-15T08:49:26;4.30;;;2.80;;
16393;SDS011;8306;51.128;4.476;2022-11-15T08:51:53;3.23;;;2.20;;
16393;SDS011;8306;51.128;4.476;2022-11-15T08:54:19;4.50;;;2.27;;
16393;SDS011;8306;51.128;4.476;2022-11-15T08:56:46;3.17;;;2.37;;
16393;SDS011;8306;51.128;4.476;2022-11-15T08:59:12;3.10;;;2.23;;
16393;SDS011;8306;51.128;4.476;2022-11-15T09:01:39;3.07;;;2.00;;
16393;SDS011;8306;51.128;4.476;2022-11-15T09:04:05;2.87;;;1.97;;
16393;SDS011;8306;51.128;4.476;2022-11-15T09:06:31;3.93;;;2.20;;
16393;SDS011;8306;51.128;4.476;2022-11-15T09:08:58;1.80;;;1.60;;
16393;SDS011;8306;51.128;4.476;2022-11-15T09:11:24;3.23;;;1.80;;
16393;SDS011;8306;51.128;4.476;2022-11-15T09:13:51;2.97;;;1.40;;
16393;SDS011;8306;51.128;4.476;2022-11-15T09:16:17;3.83;;;1.80;;
16393;SDS011;8306;51.128;4.476;2022-11-15T09:18:44;2.97;;;1.47;;
16393;SDS011;8306;51.128;4.476;2022-11-15T09:21:10;2.13;;;1.43;;
16393;SDS011;8306;51.128;4.476;2022-11-15T09:23:37;2.43;;;1.20;;
16393;SDS011;8306;51.128;4.476;2022-11-15T09:26:04;2.57;;;1.57;;
16393;SDS011;8306;51.128;4.476;2022-11-15T09:28:30;2.67;;;1.53;;
16393;SDS011;8306;51.128;4.476;2022-11-15T09:31:03;3.63;;;1.80;;
16393;SDS011;8306;51.128;4.476;2022-11-15T09:33:29;5.33;;;1.63;;
16393;SDS011;8306;51.128;4.476;2022-11-15T09:35:59;2.97;;;1.30;;
16393;SDS011;8306;51.128;4.476;2022-11-15T09:38:31;6.43;;;1.30;;
16393;SDS011;8306;51.128;4.476;2022-11-15T09:41:07;2.17;;;1.23;;
16393;SDS011;8306;51.128;4.476;2022-11-15T09:46:22;3.43;;;1.07;;
16393;SDS011;8306;51.128;4.476;2022-11-15T09:48:52;2.83;;;1.00;;
16393;SDS011;8306;51.128;4.476;2022-11-15T09:56:29;2.10;;;1.10;;
16393;SDS011;8306;51.128;4.476;2022-11-15T09:58:59;3.07;;;1.17;;
16393;SDS011;8306;51.128;4.476;2022-11-15T10:01:30;3.33;;;1.10;;
16393;SDS011;8306;51.128;4.476;2022-11-15T10:03:55;2.90;;;1.20;;
16393;SDS011;8306;51.128;4.476;2022-11-15T10:06:23;2.20;;;1.00;;
16393;SDS011;8306;51.128;4.476;2022-11-15T10:11:30;3.57;;;1.30;;
16393;SDS011;8306;51.128;4.476;2022-11-15T10:14:01;3.50;;;1.07;;
16393;SDS011;8306;51.128;4.476;2022-11-15T10:21:25;3.30;;;1.07;;
16393;SDS011;8306;51.128;4.476;2022-11-15T10:23:50;2.43;;;1.60;;
16393;SDS011;8306;51.128;4.476;2022-11-15T10:26:16;3.10;;;1.20;;
16393;SDS011;8306;51.128;4.476;2022-11-15T10:28:43;4.47;;;1.37;;
16393;SDS011;8306;51.128;4.476;2022-11-15T10:31:25;4.90;;;1.27;;
16393;SDS011;8306;51.128;4.476;2022-11-15T10:33:50;2.77;;;1.23;;
16393;SDS011;8306;51.128;4.476;2022-11-15T10:36:18;4.80;;;1.47;;
16393;SDS011;8306;51.128;4.476;2022-11-15T10:41:38;4.60;;;1.33;;
16393;SDS011;8306;51.128;4.476;2022-11-15T10:46:33;3.73;;;1.20;;
16393;SDS011;8306;51.128;4.476;2022-11-15T10:49:18;3.47;;;1.43;;
16393;SDS011;8306;51.128;4.476;2022-11-15T10:54:19;3.93;;;1.00;;
16393;SDS011;8306;51.128;4.476;2022-11-15T10:56:47;3.00;;;1.27;;
16393;SDS011;8306;51.128;4.476;2022-11-15T10:59:15;2.43;;;1.30;;
16393;SDS011;8306;51.128;4.476;2022-11-15T11:01:46;3.67;;;1.27;;
16393;SDS011;8306;51.128;4.476;2022-11-15T11:04:13;2.20;;;1.13;;
16393;SDS011;8306;51.128;4.476;2022-11-15T11:06:49;3.30;;;1.00;;
16393;SDS011;8306;51.128;4.476;2022-11-15T11:09:23;2.50;;;0.97;;
16393;SDS011;8306;51.128;4.476;2022-11-15T11:11:59;2.20;;;0.90;;
16393;SDS011;8306;51.128;4.476;2022-11-15T11:14:26;2.33;;;1.00;;
16393;SDS011;8306;51.128;4.476;2022-11-15T11:16:58;2.50;;;1.03;;
16393;SDS011;8306;51.128;4.476;2022-11-15T11:22:09;2.63;;;1.20;;
16393;SDS011;8306;51.128;4.476;2022-11-15T11:27:44;3.17;;;0.97;;
16393;SDS011;8306;51.128;4.476;2022-11-15T11:30:17;3.10;;;1.17;;
16393;SDS011;8306;51.128;4.476;2022-11-15T11:35:39;2.70;;;1.30;;
16393;SDS011;8306;51.128;4.476;2022-11-15T11:38:17;6.53;;;1.23;;
16393;SDS011;8306;51.128;4.476;2022-11-15T11:48:52;2.27;;;0.80;;
16393;SDS011;8306;51.128;4.476;2022-11-15T11:51:24;3.53;;;1.10;;
16393;SDS011;8306;51.128;4.476;2022-11-15T11:54:01;3.43;;;1.10;;
16393;SDS011;8306;51.128;4.476;2022-11-15T11:56:27;2.37;;;0.93;;
16393;SDS011;8306;51.128;4.476;2022-11-15T11:58:52;4.13;;;2.27;;
16393;SDS011;8306;51.128;4.476;2022-11-15T12:01:29;3.73;;;1.23;;
16393;SDS011;8306;51.128;4.476;2022-11-15T12:06:33;4.23;;;0.93;;
16393;SDS011;8306;51.128;4.476;2022-11-15T12:09:00;2.83;;;0.90;;
16393;SDS011;8306;51.128;4.476;2022-11-15T12:16:55;3.17;;;0.90;;
16393;SDS011;8306;51.128;4.476;2022-11-15T12:19:22;3.30;;;1.10;;
16393;SDS011;8306;51.128;4.476;2022-11-15T12:21:57;3.03;;;1.00;;
16393;SDS011;8306;51.128;4.476;2022-11-15T12:24:43;4.57;;;0.80;;
16393;SDS011;8306;51.128;4.476;2022-11-15T12:27:21;2.47;;;1.10;;
16393;SDS011;8306;51.128;4.476;2022-11-15T12:29:58;3.20;;;1.20;;
16393;SDS011;8306;51.128;4.476;2022-11-15T12:32:26;2.77;;;1.00;;
16393;SDS011;8306;51.128;4.476;2022-11-15T12:34:53;3.30;;;1.00;;
16393;SDS011;8306;51.128;4.476;2022-11-15T12:42:56;3.13;;;1.10;;
16393;SDS011;8306;51.128;4.476;2022-11-15T12:45:29;2.10;;;0.83;;
16393;SDS011;8306;51.128;4.476;2022-11-15T12:48:44;8.13;;;0.93;;
16393;SDS011;8306;51.128;4.476;2022-11-15T12:58:44;2.70;;;0.97;;
16393;SDS011;8306;51.128;4.476;2022-11-15T13:01:09;2.40;;;1.10;;
16393;SDS011;8306;51.128;4.476;2022-11-15T13:03:35;4.37;;;1.70;;
16393;SDS011;8306;51.128;4.476;2022-11-15T13:06:03;1.93;;;1.30;;
16393;SDS011;8306;51.128;4.476;2022-11-15T13:08:38;4.10;;;1.50;;
16393;SDS011;8306;51.128;4.476;2022-11-15T13:17:00;3.13;;;1.53;;
16393;SDS011;8306;51.128;4.476;2022-11-15T13:19:27;1.50;;;0.77;;
16393;SDS011;8306;51.128;4.476;2022-11-15T13:21:53;2.07;;;1.13;;
16393;SDS011;8306;51.128;4.476;2022-11-15T13:24:38;1.43;;;0.70;;
16393;SDS011;8306;51.128;4.476;2022-11-15T13:27:14;2.90;;;0.90;;
16393;SDS011;8306;51.128;4.476;2022-11-15T13:29:37;2.20;;;1.00;;
16393;SDS011;8306;51.128;4.476;2022-11-15T13:32:03;1.90;;;0.97;;
16393;SDS011;8306;51.128;4.476;2022-11-15T13:34:31;2.13;;;0.93;;
16393;SDS011;8306;51.128;4.476;2022-11-15T13:36:56;2.57;;;1.37;;
16393;SDS011;8306;51.128;4.476;2022-11-15T13:39:25;3.60;;;2.97;;
16393;SDS011;8306;51.128;4.476;2022-11-15T13:41:55;1.43;;;0.83;;
16393;SDS011;8306;51.128;4.476;2022-11-15T13:44:28;2.93;;;1.00;;
16393;SDS011;8306;51.128;4.476;2022-11-15T13:47:07;2.60;;;0.87;;
16393;SDS011;8306;51.128;4.476;2022-11-15T13:49:35;4.53;;;3.70;;
16393;SDS011;8306;51.128;4.476;2022-11-15T13:52:02;2.67;;;1.20;;
16393;SDS011;8306;51.128;4.476;2022-11-15T13:54:39;6.07;;;5.50;;
16393;SDS011;8306;51.128;4.476;2022-11-15T13:57:05;1.70;;;0.70;;
16393;SDS011;8306;51.128;4.476;2022-11-15T13:59:36;2.83;;;2.00;;
16393;SDS011;8306;51.128;4.476;2022-11-15T14:02:12;7.33;;;6.73;;
16393;SDS011;8306;51.128;4.476;2022-11-15T14:04:38;3.17;;;1.87;;
16393;SDS011;8306;51.128;4.476;2022-11-15T14:07:04;1.20;;;1.00;;
16393;SDS011;8306;51.128;4.476;2022-11-15T14:09:31;2.33;;;1.87;;
16393;SDS011;8306;51.128;4.476;2022-11-15T14:11:57;2.20;;;1.80;;
16393;SDS011;8306;51.128;4.476;2022-11-15T14:14:24;2.00;;;1.20;;
16393;SDS011;8306;51.128;4.476;2022-11-15T14:16:54;3.10;;;1.20;;
16393;SDS011;8306;51.128;4.476;2022-11-15T14:24:37;2.40;;;1.10;;
16393;SDS011;8306;51.128;4.476;2022-11-15T14:27:16;1.53;;;0.93;;
16393;SDS011;8306;51.128;4.476;2022-11-15T14:29:44;2.47;;;1.77;;
16393;SDS011;8306;51.128;4.476;2022-11-15T14:32:20;2.53;;;0.80;;
16393;SDS011;8306;51.128;4.476;2022-11-15T14:34:53;4.73;;;1.00;;
16393;SDS011;8306;51.128;4.476;2022-11-15T14:37:20;1.37;;;0.90;;
16393;SDS011;8306;51.128;4.476;2022-11-15T14:39:51;1.73;;;0.80;;
16393;SDS011;8306;51.128;4.476;2022-11-15T14:42:17;4.13;;;0.97;;
16393;SDS011;8306;51.128;4.476;2022-11-15T14:44:44;1.20;;;0.93;;
16393;SDS011;8306;51.128;4.476;2022-11-15T14:47:10;5.53;;;5.03;;
16393;SDS011;8306;51.128;4.476;2022-11-15T14:49:37;1.10;;;1.00;;
16393;SDS011;8306;51.128;4.476;2022-11-15T14:52:07;1.87;;;1.50;;
16393;SDS011;8306;51.128;4.476;2022-11-15T14:54:30;1.80;;;0.90;;
16393;SDS011;8306;51.128;4.476;2022-11-15T14:56:56;1.30;;;0.67;;
16393;SDS011;8306;51.128;4.476;2022-11-15T14:59:23;1.77;;;1.10;;
16393;SDS011;8306;51.128;4.476;2022-11-15T15:01:49;1.70;;;1.00;;
16393;SDS011;8306;51.128;4.476;2022-11-15T15:04:16;1.47;;;1.00;;
16393;SDS011;8306;51.128;4.476;2022-11-15T15:06:42;1.50;;;1.00;;
16393;SDS011;8306;51.128;4.476;2022-11-15T15:09:09;2.90;;;1.50;;
16393;SDS011;8306;51.128;4.476;2022-11-15T15:11:35;1.57;;;1.10;;
16393;SDS011;8306;51.128;4.476;2022-11-15T15:14:01;2.47;;;1.30;;
16393;SDS011;8306;51.128;4.476;2022-11-15T15:16:28;1.67;;;1.10;;
16393;SDS011;8306;51.128;4.476;2022-11-15T15:18:55;2.23;;;1.23;;
16393;SDS011;8306;51.128;4.476;2022-11-15T15:21:27;2.47;;;1.20;;
16393;SDS011;8306;51.128;4.476;2022-11-15T15:23:51;3.80;;;1.37;;
16393;SDS011;8306;51.128;4.476;2022-11-15T15:26:17;3.90;;;1.17;;
16393;SDS011;8306;51.128;4.476;2022-11-15T15:28:43;1.63;;;1.20;;
16393;SDS011;8306;51.128;4.476;2022-11-15T15:31:10;1.77;;;1.30;;
16393;SDS011;8306;51.128;4.476;2022-11-15T15:33:39;2.50;;;1.10;;
16393;SDS011;8306;51.128;4.476;2022-11-15T15:36:03;3.37;;;1.33;;
16393;SDS011;8306;51.128;4.476;2022-11-15T15:38:29;1.17;;;1.00;;
16393;SDS011;8306;51.128;4.476;2022-11-15T15:40:56;1.40;;;1.13;;
16393;SDS011;8306;51.128;4.476;2022-11-15T15:43:28;2.00;;;1.80;;
16393;SDS011;8306;51.128;4.476;2022-11-15T15:45:55;14.80;;;13.27;;
16393;SDS011;8306;51.128;4.476;2022-11-15T15:48:21;1.83;;;1.60;;
16393;SDS011;8306;51.128;4.476;2022-11-15T15:50:47;1.50;;;1.40;;
16393;SDS011;8306;51.128;4.476;2022-11-15T15:53:14;1.83;;;1.37;;
16393;SDS011;8306;51.128;4.476;2022-11-15T15:55:40;2.23;;;2.03;;
16393;SDS011;8306;51.128;4.476;2022-11-15T15:58:07;2.13;;;1.93;;
16393;SDS011;8306;51.128;4.476;2022-11-15T16:00:33;2.37;;;1.73;;
16393;SDS011;8306;51.128;4.476;2022-11-15T16:03:00;3.00;;;2.80;;
16393;SDS011;8306;51.128;4.476;2022-11-15T16:05:26;1.77;;;1.67;;
16393;SDS011;8306;51.128;4.476;2022-11-15T16:07:53;1.93;;;1.60;;
16393;SDS011;8306;51.128;4.476;2022-11-15T16:10:21;2.43;;;2.00;;
16393;SDS011;8306;51.128;4.476;2022-11-15T16:12:48;2.07;;;1.67;;
16393;SDS011;8306;51.128;4.476;2022-11-15T16:15:15;3.10;;;2.10;;
16393;SDS011;8306;51.128;4.476;2022-11-15T16:23:26;1.90;;;1.73;;
16393;SDS011;8306;51.128;4.476;2022-11-15T16:26:04;3.20;;;2.03;;
16393;SDS011;8306;51.128;4.476;2022-11-15T16:28:38;2.97;;;2.20;;
16393;SDS011;8306;51.128;4.476;2022-11-15T16:31:00;3.57;;;2.70;;
16393;SDS011;8306;51.128;4.476;2022-11-15T16:33:30;3.00;;;2.80;;
16393;SDS011;8306;51.128;4.476;2022-11-15T16:38:52;2.77;;;2.20;;
16393;SDS011;8306;51.128;4.476;2022-11-15T16:41:19;3.87;;;3.07;;
16393;SDS011;8306;51.128;4.476;2022-11-15T16:43:51;2.80;;;2.40;;
16393;SDS011;8306;51.128;4.476;2022-11-15T16:46:32;2.60;;;2.40;;
16393;SDS011;8306;51.128;4.476;2022-11-15T16:48:59;2.53;;;2.33;;
16393;SDS011;8306;51.128;4.476;2022-11-15T16:51:25;2.70;;;2.50;;